createdAt,value
2019-05-05T00:04:26.098Z,1.73
2019-05-05T00:09:34.727Z,1.97
2019-05-05T00:15:14.625Z,1.80
2019-05-05T00:26:25.843Z,1.80
2019-05-05T00:37:25.628Z,1.73
2019-05-05T00:42:30.719Z,1.87
2019-05-05T00:47:41.993Z,1.80
2019-05-05T00:52:50.029Z,1.80
2019-05-05T00:57:55.036Z,2.00
2019-05-05T01:02:59.915Z,1.60
2019-05-05T01:08:07.672Z,1.87
2019-05-05T01:13:15.052Z,1.77
2019-05-05T01:18:19.940Z,1.53
2019-05-05T01:23:25.117Z,1.80
2019-05-05T01:28:31.251Z,1.30
2019-05-05T01:33:55.101Z,1.60
2019-05-05T01:39:31.263Z,1.83
2019-05-05T01:44:36.230Z,1.43
2019-05-05T01:49:41.140Z,1.50
2019-05-05T01:54:45.923Z,1.90
2019-05-05T01:59:50.863Z,1.83
2019-05-05T02:04:55.827Z,1.87
2019-05-05T02:10:00.876Z,1.90
2019-05-05T02:15:06.149Z,1.47
2019-05-05T02:20:34.146Z,1.40
2019-05-05T02:25:38.500Z,1.60
2019-05-05T02:30:56.559Z,1.90
2019-05-05T02:36:01.367Z,1.67
2019-05-05T02:41:07.164Z,2.10
2019-05-05T02:46:21.192Z,1.40
2019-05-05T02:51:27.550Z,2.10
2019-05-05T02:56:43.535Z,1.90
2019-05-05T03:01:55.750Z,1.90
2019-05-05T03:07:07.626Z,1.90
2019-05-05T03:12:14.891Z,2.10
2019-05-05T03:17:20.614Z,2.00
2019-05-05T03:22:26.740Z,2.17
2019-05-05T03:27:31.566Z,2.13
2019-05-05T03:32:36.422Z,1.70
2019-05-05T03:37:41.442Z,2.00
2019-05-05T03:43:10.817Z,1.97
2019-05-05T03:48:15.676Z,2.30
2019-05-05T03:53:20.986Z,2.00
2019-05-05T03:58:26.822Z,2.03
2019-05-05T04:03:31.528Z,2.27
2019-05-05T04:08:36.664Z,1.93
2019-05-05T04:13:43.758Z,2.00
2019-05-05T04:19:04.682Z,2.40
2019-05-05T04:24:09.418Z,2.40
2019-05-05T04:29:14.408Z,2.33
2019-05-05T04:34:19.109Z,2.17
2019-05-05T04:39:23.810Z,2.20
2019-05-05T04:44:28.570Z,2.20
2019-05-05T04:49:41.637Z,2.20
2019-05-05T04:54:48.718Z,1.97
2019-05-05T04:59:54.152Z,2.17
2019-05-05T05:05:04.036Z,2.00
2019-05-05T05:10:09.189Z,2.30
2019-05-05T05:15:14.728Z,1.92
2019-05-05T05:20:20.187Z,2.50
2019-05-05T05:25:24.964Z,2.10
2019-05-05T05:30:29.708Z,2.47
2019-05-05T05:35:34.526Z,1.93
2019-05-05T05:40:53.704Z,2.07
2019-05-05T05:46:05.745Z,2.10
2019-05-05T05:51:14.609Z,1.87
2019-05-05T05:56:20.647Z,1.95
2019-05-05T06:01:25.436Z,2.10
2019-05-05T06:06:30.275Z,1.90
2019-05-05T06:11:37.359Z,1.93
2019-05-05T06:16:44.679Z,2.20
2019-05-05T06:21:54.133Z,1.90
2019-05-05T06:26:58.525Z,1.97
2019-05-05T06:32:04.967Z,2.20
2019-05-05T06:37:11.073Z,1.70
2019-05-05T06:42:43.524Z,2.13
2019-05-05T06:47:48.527Z,1.90
2019-05-05T06:52:53.723Z,1.97
2019-05-05T06:57:58.891Z,1.87
2019-05-05T07:03:07.671Z,1.80
2019-05-05T07:08:10.927Z,2.00
2019-05-05T07:13:15.682Z,1.50
2019-05-05T07:18:20.547Z,1.60
2019-05-05T07:23:25.496Z,1.60
2019-05-05T07:28:30.203Z,1.60
2019-05-05T07:33:34.908Z,1.50
2019-05-05T07:38:40.023Z,1.13
2019-05-05T07:43:44.796Z,1.47
2019-05-05T07:48:49.632Z,1.60
2019-05-05T07:53:54.739Z,1.30
2019-05-05T07:58:59.732Z,1.13
2019-05-05T08:04:04.674Z,1.70
2019-05-05T08:09:09.468Z,1.30
2019-05-05T08:14:14.673Z,1.40
2019-05-05T08:19:34.686Z,1.40
2019-05-05T08:25:14.497Z,1.43
2019-05-05T08:30:26.087Z,1.30
2019-05-05T08:35:30.880Z,1.22
2019-05-05T08:40:35.926Z,1.43
2019-05-05T08:45:40.733Z,1.40
2019-05-05T08:50:45.729Z,1.03
2019-05-05T08:55:50.414Z,1.37
2019-05-05T09:00:55.142Z,1.30
2019-05-05T09:05:59.920Z,1.27
2019-05-05T09:11:04.958Z,1.30
2019-05-05T09:16:11.087Z,1.53
2019-05-05T09:21:17.094Z,1.40
2019-05-05T09:26:43.873Z,1.37
2019-05-05T09:31:48.725Z,1.20
2019-05-05T09:36:54.490Z,1.50
2019-05-05T09:41:59.585Z,1.40
2019-05-05T09:47:04.957Z,1.47
2019-05-05T09:52:10.045Z,1.27
2019-05-05T09:57:14.756Z,1.30
2019-05-05T10:02:19.739Z,1.10
2019-05-05T10:07:24.733Z,1.20
2019-05-05T10:12:30.078Z,1.35
2019-05-05T10:17:34.800Z,1.40
2019-05-05T10:22:41.430Z,1.40
2019-05-05T10:27:47.828Z,1.43
2019-05-05T10:32:54.531Z,1.30
2019-05-05T10:38:00.171Z,1.70
2019-05-05T10:43:05.129Z,1.32
2019-05-05T10:48:09.915Z,0.90
2019-05-05T10:53:14.921Z,1.12
2019-05-05T10:58:20.123Z,0.95
2019-05-05T11:03:25.615Z,0.90
2019-05-05T11:08:31.144Z,1.00
2019-05-05T11:13:36.396Z,1.30
2019-05-05T11:18:41.864Z,1.20
2019-05-05T11:23:47.014Z,1.22
2019-05-05T11:28:53.809Z,1.27
2019-05-05T11:34:10.908Z,1.12
2019-05-05T11:39:16.920Z,1.12
2019-05-05T11:44:24.143Z,1.20
2019-05-05T11:49:28.442Z,1.00
2019-05-05T11:54:33.264Z,1.10
2019-05-05T11:59:37.978Z,0.90
2019-05-05T12:04:42.770Z,0.82
2019-05-05T12:09:55.062Z,1.22
2019-05-05T12:14:59.876Z,1.22
2019-05-05T12:20:10.034Z,1.10
2019-05-05T12:25:32.683Z,1.20
2019-05-05T12:30:37.636Z,1.20
2019-05-05T12:35:44.499Z,1.15
2019-05-05T12:40:48.902Z,0.93
2019-05-05T12:46:06.376Z,1.42
2019-05-05T12:51:11.460Z,1.10
2019-05-05T12:56:16.253Z,1.25
2019-05-05T13:01:24.646Z,1.05
2019-05-05T13:06:29.809Z,1.22
2019-05-05T13:11:34.568Z,1.15
2019-05-05T13:16:49.802Z,1.07
2019-05-05T13:22:03.554Z,1.05
2019-05-05T13:27:19.199Z,0.90
2019-05-05T13:32:19.829Z,1.35
2019-05-05T13:37:24.828Z,1.27
2019-05-05T13:42:29.745Z,0.95
2019-05-05T13:47:34.683Z,1.15
2019-05-05T13:52:40.555Z,1.22
2019-05-05T13:57:45.311Z,1.10
2019-05-05T14:02:51.208Z,1.10
2019-05-05T14:07:55.921Z,1.27
2019-05-05T14:13:03.986Z,1.47
2019-05-05T14:18:08.910Z,1.00
2019-05-05T14:23:17.537Z,1.25
2019-05-05T14:28:23.446Z,1.05
2019-05-05T14:33:34.131Z,1.02
2019-05-05T14:38:41.267Z,1.00
2019-05-05T14:43:46.175Z,0.90
2019-05-05T14:48:50.899Z,1.05
2019-05-05T14:53:55.914Z,1.13
2019-05-05T14:59:00.680Z,1.00
2019-05-05T15:04:08.568Z,1.37
2019-05-05T15:09:24.533Z,1.10
2019-05-05T15:14:29.174Z,1.30
2019-05-05T15:19:34.078Z,1.00
2019-05-05T15:24:44.145Z,1.00
2019-05-05T15:29:55.062Z,1.07
2019-05-05T15:34:59.825Z,1.00
2019-05-05T15:40:05.356Z,1.10
2019-05-05T15:45:10.213Z,0.97
2019-05-05T15:50:15.560Z,1.00
2019-05-05T15:55:20.686Z,1.17
2019-05-05T16:00:26.610Z,1.23
2019-05-05T16:05:34.947Z,1.20
2019-05-05T16:10:39.828Z,1.15
2019-05-05T16:16:12.141Z,1.32
2019-05-05T16:21:54.454Z,1.10
2019-05-05T16:26:59.286Z,1.05
2019-05-05T16:32:17.892Z,1.32
2019-05-05T16:37:11.180Z,1.17
2019-05-05T16:42:16.027Z,1.42
2019-05-05T16:47:20.884Z,0.78
2019-05-05T16:52:33.232Z,1.20
2019-05-05T16:57:38.910Z,1.20
2019-05-05T17:02:44.465Z,1.15
2019-05-05T17:07:49.639Z,1.05
2019-05-05T17:12:55.649Z,1.22
2019-05-05T17:18:31.865Z,1.10
2019-05-05T17:23:26.222Z,1.00
2019-05-05T17:28:30.976Z,0.90
2019-05-05T17:33:38.537Z,1.10
2019-05-05T17:38:43.799Z,1.20
2019-05-05T17:43:54.165Z,1.00
2019-05-05T17:49:18.373Z,1.10
2019-05-05T17:54:41.959Z,1.25
2019-05-05T17:59:46.711Z,1.30
2019-05-05T18:04:53.846Z,1.35
2019-05-05T18:10:23.984Z,1.53
2019-05-05T18:15:48.369Z,1.35
2019-05-05T18:20:54.225Z,1.40
2019-05-05T18:25:59.100Z,1.70
2019-05-05T18:31:05.648Z,1.62
2019-05-05T18:36:10.395Z,1.80
2019-05-05T18:41:23.689Z,1.87
2019-05-05T18:46:28.572Z,2.60
2019-05-05T18:51:34.757Z,2.25
2019-05-05T18:56:39.592Z,2.00
2019-05-05T19:01:54.286Z,1.95
2019-05-05T19:07:03.631Z,1.65
2019-05-05T19:12:12.406Z,1.90
2019-05-05T19:17:17.160Z,2.23
2019-05-05T19:22:21.924Z,2.20
2019-05-05T19:27:33.565Z,2.83
2019-05-05T19:32:38.428Z,2.60
2019-05-05T19:37:44.522Z,2.50
2019-05-05T19:42:49.478Z,2.40
2019-05-05T19:47:55.240Z,2.60
2019-05-05T19:53:01.060Z,2.80
2019-05-05T19:58:05.890Z,2.80
2019-05-05T20:03:10.819Z,2.67
2019-05-05T20:08:15.564Z,2.63
2019-05-05T20:13:21.060Z,2.40
2019-05-05T20:18:25.830Z,2.40
2019-05-05T20:23:30.766Z,2.50
2019-05-05T20:28:35.704Z,2.40
2019-05-05T20:33:58.280Z,2.67
2019-05-05T20:39:04.343Z,2.40
2019-05-05T20:44:13.810Z,2.27
2019-05-05T20:49:18.073Z,2.30
2019-05-05T20:54:28.558Z,2.30
2019-05-05T20:59:34.228Z,2.33
2019-05-05T21:04:39.296Z,2.50
2019-05-05T21:09:44.147Z,2.60
2019-05-05T21:14:49.394Z,2.80
2019-05-05T21:19:54.214Z,2.60
2019-05-05T21:24:59.383Z,3.70
2019-05-05T21:30:05.378Z,2.67
2019-05-05T21:35:10.205Z,2.47
2019-05-05T21:40:17.817Z,2.90
2019-05-05T21:45:22.756Z,2.93
2019-05-05T21:50:33.919Z,2.73
2019-05-05T21:55:44.450Z,2.60
2019-05-05T22:01:17.499Z,2.50
2019-05-05T22:06:24.179Z,2.70
2019-05-05T22:11:28.753Z,2.27
2019-05-05T22:16:35.475Z,2.60
2019-05-05T22:21:47.837Z,2.73
2019-05-05T22:26:54.117Z,2.33
2019-05-05T22:31:59.181Z,2.53
2019-05-05T22:37:08.910Z,2.57
2019-05-05T22:42:11.288Z,2.40
2019-05-05T22:47:16.308Z,2.30
2019-05-05T22:52:21.123Z,2.73
2019-05-05T22:57:26.071Z,2.70
2019-05-05T23:02:34.054Z,2.37
2019-05-05T23:07:38.871Z,2.73
2019-05-05T23:12:44.036Z,2.87
2019-05-05T23:18:10.579Z,2.37
2019-05-05T23:23:42.325Z,2.67
2019-05-05T23:28:47.035Z,2.73
2019-05-05T23:33:58.231Z,2.50
2019-05-05T23:39:05.404Z,2.30
2019-05-05T23:44:10.295Z,2.17
2019-05-05T23:49:15.134Z,2.00
2019-05-05T23:54:19.977Z,2.40
2019-05-05T23:59:24.938Z,2.20
